sensor_id;sensor_type;location;lat;lon;timestamp;pressure;altitude;pressure_sealevel;temperature;humidity
65329;BME280;51941;52.210;5.158;2023-08-07T00:00:55;101261.72;;;13.47;100.00
65329;BME280;51941;52.210;5.158;2023-08-07T00:03:22;101252.03;;;13.41;100.00
65329;BME280;51941;52.210;5.158;2023-08-07T00:05:48;101265.41;;;13.46;100.00
65329;BME280;51941;52.210;5.158;2023-08-07T00:08:17;101264.13;;;13.49;100.00
65329;BME280;51941;52.210;5.158;2023-08-07T00:10:45;101264.94;;;13.49;100.00
65329;BME280;51941;52.210;5.158;2023-08-07T00:13:13;101265.97;;;13.48;100.00
65329;BME280;51941;52.210;5.158;2023-08-07T00:15:39;101268.22;;;13.40;100.00
65329;BME280;51941;52.210;5.158;2023-08-07T00:18:06;101273.03;;;13.43;100.00
65329;BME280;51941;52.210;5.158;2023-08-07T00:20:33;101264.16;;;13.37;100.00
65329;BME280;51941;52.210;5.158;2023-08-07T00:23:00;101276.13;;;13.23;100.00
65329;BME280;51941;52.210;5.158;2023-08-07T00:25:27;101268.38;;;13.21;100.00
65329;BME280;51941;52.210;5.158;2023-08-07T00:27:55;101275.56;;;13.21;100.00
65329;BME280;51941;52.210;5.158;2023-08-07T00:30:21;101277.88;;;13.17;100.00
65329;BME280;51941;52.210;5.158;2023-08-07T00:32:48;101268.66;;;13.08;100.00
65329;BME280;51941;52.210;5.158;2023-08-07T00:35:15;101269.69;;;13.07;100.00
65329;BME280;51941;52.210;5.158;2023-08-07T00:37:42;101278.59;;;13.13;100.00
65329;BME280;51941;52.210;5.158;2023-08-07T00:40:09;101266.72;;;13.04;100.00
65329;BME280;51941;52.210;5.158;2023-08-07T00:42:36;101270.38;;;13.14;100.00
65329;BME280;51941;52.210;5.158;2023-08-07T00:45:05;101261.91;;;13.17;100.00
65329;BME280;51941;52.210;5.158;2023-08-07T00:47:32;101265.06;;;13.14;100.00
65329;BME280;51941;52.210;5.158;2023-08-07T00:50:02;101266.09;;;13.13;100.00
65329;BME280;51941;52.210;5.158;2023-08-07T00:52:30;101268.03;;;13.18;100.00
65329;BME280;51941;52.210;5.158;2023-08-07T00:54:57;101259.25;;;13.17;100.00
65329;BME280;51941;52.210;5.158;2023-08-07T00:57:24;101255.56;;;13.18;100.00
65329;BME280;51941;52.210;5.158;2023-08-07T00:59:52;101256.13;;;13.20;100.00
65329;BME280;51941;52.210;5.158;2023-08-07T01:02:20;101261.44;;;13.20;100.00
65329;BME280;51941;52.210;5.158;2023-08-07T01:04:47;101262.03;;;13.22;100.00
65329;BME280;51941;52.210;5.158;2023-08-07T01:07:14;101254.88;;;13.23;100.00
65329;BME280;51941;52.210;5.158;2023-08-07T01:09:40;101255.09;;;13.21;100.00
65329;BME280;51941;52.210;5.158;2023-08-07T01:12:14;101257.38;;;13.29;100.00
65329;BME280;51941;52.210;5.158;2023-08-07T01:14:49;101251.00;;;13.30;100.00
65329;BME280;51941;52.210;5.158;2023-08-07T01:17:21;101251.81;;;13.31;100.00
65329;BME280;51941;52.210;5.158;2023-08-07T01:19:50;101264.31;;;13.30;100.00
65329;BME280;51941;52.210;5.158;2023-08-07T01:22:19;101259.28;;;13.34;100.00
65329;BME280;51941;52.210;5.158;2023-08-07T01:24:48;101267.84;;;13.36;100.00
65329;BME280;51941;52.210;5.158;2023-08-07T01:27:24;101268.88;;;13.35;100.00
65329;BME280;51941;52.210;5.158;2023-08-07T01:29:59;101273.41;;;13.35;100.00
65329;BME280;51941;52.210;5.158;2023-08-07T01:32:34;101272.03;;;13.32;100.00
65329;BME280;51941;52.210;5.158;2023-08-07T01:35:03;101272.59;;;13.34;100.00
65329;BME280;51941;52.210;5.158;2023-08-07T01:37:35;101271.31;;;13.37;100.00
65329;BME280;51941;52.210;5.158;2023-08-07T01:40:04;101279.28;;;13.37;100.00
65329;BME280;51941;52.210;5.158;2023-08-07T01:42:32;101273.97;;;13.37;100.00
65329;BME280;51941;52.210;5.158;2023-08-07T01:44:59;101275.59;;;13.38;100.00
65329;BME280;51941;52.210;5.158;2023-08-07T01:47:27;101268.44;;;13.38;100.00
65329;BME280;51941;52.210;5.158;2023-08-07T01:49:53;101265.66;;;13.45;100.00
65329;BME280;51941;52.210;5.158;2023-08-07T01:52:20;101278.94;;;13.45;100.00
65329;BME280;51941;52.210;5.158;2023-08-07T01:54:49;101280.31;;;13.47;100.00
65329;BME280;51941;52.210;5.158;2023-08-07T01:57:15;101277.91;;;13.46;100.00
65329;BME280;51941;52.210;5.158;2023-08-07T01:59:42;101274.19;;;13.47;100.00
65329;BME280;51941;52.210;5.158;2023-08-07T02:02:10;101270.97;;;13.45;100.00
65329;BME280;51941;52.210;5.158;2023-08-07T02:04:36;101269.13;;;13.45;100.00
65329;BME280;51941;52.210;5.158;2023-08-07T02:07:04;101283.31;;;13.51;100.00
65329;BME280;51941;52.210;5.158;2023-08-07T02:09:31;101291.84;;;13.53;100.00
65329;BME280;51941;52.210;5.158;2023-08-07T02:11:59;101278.56;;;13.53;100.00
65329;BME280;51941;52.210;5.158;2023-08-07T02:14:26;101281.56;;;13.56;100.00
65329;BME280;51941;52.210;5.158;2023-08-07T02:16:53;101279.94;;;13.55;100.00
65329;BME280;51941;52.210;5.158;2023-08-07T02:19:20;101276.69;;;13.53;100.00
65329;BME280;51941;52.210;5.158;2023-08-07T02:21:47;101280.50;;;13.57;100.00
65329;BME280;51941;52.210;5.158;2023-08-07T02:24:13;101284.56;;;13.60;100.00
65329;BME280;51941;52.210;5.158;2023-08-07T02:26:40;101289.31;;;13.58;100.00
65329;BME280;51941;52.210;5.158;2023-08-07T02:29:08;101287.53;;;13.63;100.00
65329;BME280;51941;52.210;5.158;2023-08-07T02:31:35;101290.00;;;13.53;100.00
65329;BME280;51941;52.210;5.158;2023-08-07T02:34:02;101294.03;;;13.56;100.00
65329;BME280;51941;52.210;5.158;2023-08-07T02:36:30;101294.84;;;13.56;100.00
65329;BME280;51941;52.210;5.158;2023-08-07T02:38:56;101299.94;;;13.58;100.00
65329;BME280;51941;52.210;5.158;2023-08-07T02:41:23;101319.41;;;13.47;100.00
65329;BME280;51941;52.210;5.158;2023-08-07T02:43:50;101310.97;;;13.38;100.00
65329;BME280;51941;52.210;5.158;2023-08-07T02:46:18;101308.09;;;13.40;100.00
65329;BME280;51941;52.210;5.158;2023-08-07T02:48:45;101311.69;;;13.34;100.00
65329;BME280;51941;52.210;5.158;2023-08-07T02:51:11;101314.69;;;13.25;100.00
65329;BME280;51941;52.210;5.158;2023-08-07T02:53:38;101307.53;;;13.26;100.00
65329;BME280;51941;52.210;5.158;2023-08-07T02:56:05;101314.97;;;13.24;100.00
65329;BME280;51941;52.210;5.158;2023-08-07T02:58:31;101311.97;;;13.20;100.00
65329;BME280;51941;52.210;5.158;2023-08-07T03:01:03;101314.25;;;13.17;100.00
65329;BME280;51941;52.210;5.158;2023-08-07T03:03:31;101300.88;;;13.23;100.00
65329;BME280;51941;52.210;5.158;2023-08-07T03:05:58;101298.91;;;13.19;100.00
65329;BME280;51941;52.210;5.158;2023-08-07T03:08:26;101298.66;;;13.20;100.00
65329;BME280;51941;52.210;5.158;2023-08-07T03:10:54;101300.50;;;13.20;100.00
65329;BME280;51941;52.210;5.158;2023-08-07T03:13:23;101310.09;;;13.21;100.00
65329;BME280;51941;52.210;5.158;2023-08-07T03:15:54;101309.31;;;13.20;100.00
65329;BME280;51941;52.210;5.158;2023-08-07T03:18:24;101304.22;;;13.19;100.00
65329;BME280;51941;52.210;5.158;2023-08-07T03:20:52;101300.16;;;13.16;100.00
65329;BME280;51941;52.210;5.158;2023-08-07T03:23:19;101301.47;;;13.14;100.00
65329;BME280;51941;52.210;5.158;2023-08-07T03:25:46;101294.75;;;13.11;100.00
65329;BME280;51941;52.210;5.158;2023-08-07T03:28:13;101289.69;;;13.10;100.00
65329;BME280;51941;52.210;5.158;2023-08-07T03:30:40;101290.59;;;13.15;100.00
65329;BME280;51941;52.210;5.158;2023-08-07T03:33:07;101296.47;;;13.17;100.00
65329;BME280;51941;52.210;5.158;2023-08-07T03:35:35;101290.94;;;13.19;100.00
65329;BME280;51941;52.210;5.158;2023-08-07T03:38:03;101302.38;;;13.19;100.00
65329;BME280;51941;52.210;5.158;2023-08-07T03:40:30;101299.47;;;13.21;100.00
65329;BME280;51941;52.210;5.158;2023-08-07T03:42:56;101309.06;;;13.22;100.00
65329;BME280;51941;52.210;5.158;2023-08-07T03:45:24;101305.03;;;13.19;100.00
65329;BME280;51941;52.210;5.158;2023-08-07T03:47:51;101306.41;;;13.22;100.00
65329;BME280;51941;52.210;5.158;2023-08-07T03:50:17;101295.06;;;13.26;100.00
65329;BME280;51941;52.210;5.158;2023-08-07T03:52:44;101302.22;;;13.26;100.00
65329;BME280;51941;52.210;5.158;2023-08-07T03:55:12;101296.34;;;13.24;100.00
65329;BME280;51941;52.210;5.158;2023-08-07T03:57:39;101299.47;;;13.21;100.00
65329;BME280;51941;52.210;5.158;2023-08-07T04:00:07;101297.47;;;13.28;100.00
65329;BME280;51941;52.210;5.158;2023-08-07T04:02:43;101292.41;;;13.26;100.00
65329;BME280;51941;52.210;5.158;2023-08-07T04:05:12;101295.41;;;13.30;100.00
65329;BME280;51941;52.210;5.158;2023-08-07T04:07:39;101301.84;;;13.34;100.00
65329;BME280;51941;52.210;5.158;2023-08-07T04:10:06;101294.34;;;13.31;100.00
65329;BME280;51941;52.210;5.158;2023-08-07T04:12:34;101301.06;;;13.34;100.00
65329;BME280;51941;52.210;5.158;2023-08-07T04:15:01;101297.34;;;13.35;100.00
65329;BME280;51941;52.210;5.158;2023-08-07T04:17:28;101301.97;;;13.39;100.00
65329;BME280;51941;52.210;5.158;2023-08-07T04:19:55;101306.94;;;13.36;100.00
65329;BME280;51941;52.210;5.158;2023-08-07T04:22:21;101303.59;;;13.40;100.00
65329;BME280;51941;52.210;5.158;2023-08-07T04:24:48;101303.91;;;13.44;100.00
65329;BME280;51941;52.210;5.158;2023-08-07T04:27:15;101310.03;;;13.44;100.00
65329;BME280;51941;52.210;5.158;2023-08-07T04:29:43;101308.53;;;13.48;100.00
65329;BME280;51941;52.210;5.158;2023-08-07T04:32:10;101308.63;;;13.53;100.00
65329;BME280;51941;52.210;5.158;2023-08-07T04:34:36;101305.38;;;13.51;100.00
65329;BME280;51941;52.210;5.158;2023-08-07T04:37:04;101312.91;;;13.54;100.00
65329;BME280;51941;52.210;5.158;2023-08-07T04:39:31;101313.25;;;13.58;100.00
65329;BME280;51941;52.210;5.158;2023-08-07T04:41:58;101307.19;;;13.62;100.00
65329;BME280;51941;52.210;5.158;2023-08-07T04:44:25;101317.75;;;13.57;100.00
65329;BME280;51941;52.210;5.158;2023-08-07T04:46:53;101326.38;;;13.64;100.00
65329;BME280;51941;52.210;5.158;2023-08-07T04:49:20;101316.31;;;13.66;100.00
65329;BME280;51941;52.210;5.158;2023-08-07T04:51:46;101317.13;;;13.67;100.00
65329;BME280;51941;52.210;5.158;2023-08-07T04:54:13;101328.31;;;13.69;100.00
65329;BME280;51941;52.210;5.158;2023-08-07T04:56:40;101319.41;;;13.75;100.00
65329;BME280;51941;52.210;5.158;2023-08-07T04:59:09;101333.50;;;13.76;100.00
65329;BME280;51941;52.210;5.158;2023-08-07T05:01:36;101321.00;;;13.76;100.00
65329;BME280;51941;52.210;5.158;2023-08-07T05:04:05;101322.63;;;13.77;100.00
65329;BME280;51941;52.210;5.158;2023-08-07T05:06:32;101329.88;;;13.82;100.00
65329;BME280;51941;52.210;5.158;2023-08-07T05:08:58;101337.88;;;13.82;100.00
65329;BME280;51941;52.210;5.158;2023-08-07T05:11:25;101343.34;;;13.75;100.00
65329;BME280;51941;52.210;5.158;2023-08-07T05:13:52;101360.25;;;13.69;100.00
65329;BME280;51941;52.210;5.158;2023-08-07T05:16:19;101359.19;;;13.70;100.00
65329;BME280;51941;52.210;5.158;2023-08-07T05:18:45;101362.38;;;13.55;100.00
65329;BME280;51941;52.210;5.158;2023-08-07T05:21:13;101365.19;;;13.49;100.00
65329;BME280;51941;52.210;5.158;2023-08-07T05:23:40;101378.38;;;13.44;100.00
65329;BME280;51941;52.210;5.158;2023-08-07T05:26:07;101365.06;;;13.44;100.00
65329;BME280;51941;52.210;5.158;2023-08-07T05:28:33;101379.75;;;13.35;100.00
65329;BME280;51941;52.210;5.158;2023-08-07T05:31:00;101374.50;;;13.23;100.00
65329;BME280;51941;52.210;5.158;2023-08-07T05:33:27;101371.25;;;13.09;100.00
65329;BME280;51941;52.210;5.158;2023-08-07T05:35:54;101367.69;;;13.04;100.00
65329;BME280;51941;52.210;5.158;2023-08-07T05:38:22;101384.47;;;13.04;100.00
65329;BME280;51941;52.210;5.158;2023-08-07T05:40:49;101376.56;;;13.09;100.00
65329;BME280;51941;52.210;5.158;2023-08-07T05:43:16;101377.88;;;13.07;100.00
65329;BME280;51941;52.210;5.158;2023-08-07T05:45:43;101383.97;;;13.19;100.00
65329;BME280;51941;52.210;5.158;2023-08-07T05:48:11;101380.72;;;13.28;100.00
65329;BME280;51941;52.210;5.158;2023-08-07T05:50:38;101386.25;;;13.39;100.00
65329;BME280;51941;52.210;5.158;2023-08-07T05:53:05;101390.50;;;13.51;100.00
65329;BME280;51941;52.210;5.158;2023-08-07T05:55:34;101392.53;;;13.61;100.00
65329;BME280;51941;52.210;5.158;2023-08-07T05:58:00;101394.94;;;13.74;100.00
65329;BME280;51941;52.210;5.158;2023-08-07T06:00:27;101388.34;;;13.77;100.00
65329;BME280;51941;52.210;5.158;2023-08-07T06:02:54;101395.84;;;13.96;100.00
65329;BME280;51941;52.210;5.158;2023-08-07T06:05:21;101395.56;;;14.10;100.00
65329;BME280;51941;52.210;5.158;2023-08-07T06:07:47;101393.16;;;14.25;100.00
65329;BME280;51941;52.210;5.158;2023-08-07T06:10:14;101404.56;;;14.37;100.00
65329;BME280;51941;52.210;5.158;2023-08-07T06:12:42;101406.22;;;14.55;100.00
65329;BME280;51941;52.210;5.158;2023-08-07T06:15:09;101406.03;;;14.61;100.00
65329;BME280;51941;52.210;5.158;2023-08-07T06:17:36;101397.22;;;14.61;100.00
65329;BME280;51941;52.210;5.158;2023-08-07T06:20:06;101398.63;;;14.63;100.00
65329;BME280;51941;52.210;5.158;2023-08-07T06:22:34;101405.28;;;14.66;100.00
65329;BME280;51941;52.210;5.158;2023-08-07T06:25:01;101406.28;;;14.60;100.00
65329;BME280;51941;52.210;5.158;2023-08-07T06:27:28;101408.94;;;14.60;100.00
65329;BME280;51941;52.210;5.158;2023-08-07T06:29:57;101414.03;;;14.61;100.00
65329;BME280;51941;52.210;5.158;2023-08-07T06:32:25;101423.16;;;14.65;100.00
65329;BME280;51941;52.210;5.158;2023-08-07T06:34:52;101413.16;;;14.56;100.00
65329;BME280;51941;52.210;5.158;2023-08-07T06:37:19;101419.84;;;14.58;100.00
65329;BME280;51941;52.210;5.158;2023-08-07T06:39:45;101426.47;;;14.56;100.00
65329;BME280;51941;52.210;5.158;2023-08-07T06:42:12;101425.78;;;14.49;100.00
65329;BME280;51941;52.210;5.158;2023-08-07T06:44:42;101414.81;;;14.28;100.00
65329;BME280;51941;52.210;5.158;2023-08-07T06:47:10;101424.25;;;14.36;100.00
65329;BME280;51941;52.210;5.158;2023-08-07T06:49:37;101431.81;;;14.27;100.00
65329;BME280;51941;52.210;5.158;2023-08-07T06:52:04;101444.81;;;14.24;100.00
65329;BME280;51941;52.210;5.158;2023-08-07T06:54:31;101432.22;;;14.19;100.00
65329;BME280;51941;52.210;5.158;2023-08-07T06:56:57;101447.84;;;14.16;100.00
65329;BME280;51941;52.210;5.158;2023-08-07T06:59:24;101441.47;;;14.17;100.00
65329;BME280;51941;52.210;5.158;2023-08-07T07:01:51;101452.47;;;14.20;100.00
65329;BME280;51941;52.210;5.158;2023-08-07T07:04:19;101449.84;;;14.37;100.00
65329;BME280;51941;52.210;5.158;2023-08-07T07:06:46;101462.06;;;14.66;100.00
65329;BME280;51941;52.210;5.158;2023-08-07T07:09:13;101450.97;;;15.08;100.00
65329;BME280;51941;52.210;5.158;2023-08-07T07:11:42;101451.19;;;15.23;100.00
65329;BME280;51941;52.210;5.158;2023-08-07T07:14:10;101450.69;;;15.26;100.00
65329;BME280;51941;52.210;5.158;2023-08-07T07:16:37;101461.84;;;15.23;100.00
65329;BME280;51941;52.210;5.158;2023-08-07T07:19:04;101462.84;;;15.17;100.00
65329;BME280;51941;52.210;5.158;2023-08-07T07:21:34;101473.53;;;15.00;100.00
65329;BME280;51941;52.210;5.158;2023-08-07T07:24:01;101473.84;;;14.87;100.00
65329;BME280;51941;52.210;5.158;2023-08-07T07:26:28;101472.16;;;14.81;100.00
65329;BME280;51941;52.210;5.158;2023-08-07T07:28:55;101475.06;;;14.79;100.00
65329;BME280;51941;52.210;5.158;2023-08-07T07:31:22;101478.22;;;14.76;100.00
65329;BME280;51941;52.210;5.158;2023-08-07T07:33:48;101473.63;;;14.72;100.00
65329;BME280;51941;52.210;5.158;2023-08-07T07:36:16;101474.97;;;14.74;100.00
65329;BME280;51941;52.210;5.158;2023-08-07T07:38:46;101483.38;;;15.00;100.00
65329;BME280;51941;52.210;5.158;2023-08-07T07:41:14;101486.84;;;15.77;100.00
65329;BME280;51941;52.210;5.158;2023-08-07T07:43:41;101480.88;;;16.73;100.00
65329;BME280;51941;52.210;5.158;2023-08-07T07:46:08;101487.69;;;17.85;100.00
65329;BME280;51941;52.210;5.158;2023-08-07T07:48:34;101479.28;;;18.59;100.00
65329;BME280;51941;52.210;5.158;2023-08-07T07:51:02;101483.81;;;18.78;100.00
65329;BME280;51941;52.210;5.158;2023-08-07T07:53:29;101491.31;;;18.81;100.00
65329;BME280;51941;52.210;5.158;2023-08-07T07:55:57;101503.19;;;17.83;100.00
65329;BME280;51941;52.210;5.158;2023-08-07T07:58:24;101503.16;;;17.25;100.00
65329;BME280;51941;52.210;5.158;2023-08-07T08:00:51;101518.31;;;16.24;100.00
65329;BME280;51941;52.210;5.158;2023-08-07T08:03:19;101512.31;;;15.85;100.00
65329;BME280;51941;52.210;5.158;2023-08-07T08:05:49;101519.25;;;15.86;100.00
65329;BME280;51941;52.210;5.158;2023-08-07T08:08:16;101517.47;;;15.70;100.00
65329;BME280;51941;52.210;5.158;2023-08-07T08:10:43;101523.78;;;16.61;100.00
65329;BME280;51941;52.210;5.158;2023-08-07T08:13:11;101525.81;;;17.55;100.00
65329;BME280;51941;52.210;5.158;2023-08-07T08:15:38;101522.09;;;18.28;100.00
65329;BME280;51941;52.210;5.158;2023-08-07T08:18:05;101526.47;;;18.95;100.00
65329;BME280;51941;52.210;5.158;2023-08-07T08:20:31;101517.28;;;19.47;100.00
65329;BME280;51941;52.210;5.158;2023-08-07T08:22:58;101513.66;;;19.82;100.00
65329;BME280;51941;52.210;5.158;2023-08-07T08:25:25;101523.41;;;20.17;100.00
65329;BME280;51941;52.210;5.158;2023-08-07T08:27:52;101519.66;;;20.13;100.00
65329;BME280;51941;52.210;5.158;2023-08-07T08:30:20;101521.59;;;19.17;100.00
65329;BME280;51941;52.210;5.158;2023-08-07T08:32:47;101536.13;;;18.61;100.00
65329;BME280;51941;52.210;5.158;2023-08-07T08:35:14;101546.09;;;17.93;100.00
65329;BME280;51941;52.210;5.158;2023-08-07T08:37:41;101549.06;;;17.49;100.00
65329;BME280;51941;52.210;5.158;2023-08-07T08:40:08;101554.56;;;16.95;100.00
65329;BME280;51941;52.210;5.158;2023-08-07T08:42:39;101546.91;;;16.72;100.00
65329;BME280;51941;52.210;5.158;2023-08-07T08:45:08;101546.84;;;16.40;100.00
65329;BME280;51941;52.210;5.158;2023-08-07T08:47:39;101543.75;;;16.26;100.00
65329;BME280;51941;52.210;5.158;2023-08-07T08:50:07;101544.81;;;16.25;100.00
65329;BME280;51941;52.210;5.158;2023-08-07T08:52:36;101556.25;;;16.21;100.00
65329;BME280;51941;52.210;5.158;2023-08-07T08:55:04;101554.06;;;16.18;100.00
65329;BME280;51941;52.210;5.158;2023-08-07T08:57:32;101555.16;;;16.44;100.00
65329;BME280;51941;52.210;5.158;2023-08-07T09:00:00;101556.91;;;16.60;100.00
65329;BME280;51941;52.210;5.158;2023-08-07T09:02:27;101555.13;;;16.65;100.00
65329;BME280;51941;52.210;5.158;2023-08-07T09:04:56;101546.09;;;16.72;100.00
65329;BME280;51941;52.210;5.158;2023-08-07T09:07:23;101551.84;;;16.85;100.00
65329;BME280;51941;52.210;5.158;2023-08-07T09:09:52;101565.13;;;17.12;100.00
65329;BME280;51941;52.210;5.158;2023-08-07T09:12:20;101566.56;;;17.25;100.00
65329;BME280;51941;52.210;5.158;2023-08-07T09:14:55;101570.63;;;17.32;100.00
65329;BME280;51941;52.210;5.158;2023-08-07T09:17:23;101580.75;;;17.20;100.00
65329;BME280;51941;52.210;5.158;2023-08-07T09:19:52;101574.84;;;17.23;100.00
65329;BME280;51941;52.210;5.158;2023-08-07T09:22:20;101579.38;;;17.18;100.00
65329;BME280;51941;52.210;5.158;2023-08-07T09:24:46;101586.25;;;17.09;100.00
65329;BME280;51941;52.210;5.158;2023-08-07T09:27:13;101586.13;;;16.93;100.00
65329;BME280;51941;52.210;5.158;2023-08-07T09:29:40;101579.56;;;16.79;100.00
65329;BME280;51941;52.210;5.158;2023-08-07T09:32:08;101586.69;;;16.68;100.00
65329;BME280;51941;52.210;5.158;2023-08-07T09:34:34;101587.22;;;16.65;100.00
65329;BME280;51941;52.210;5.158;2023-08-07T09:37:01;101592.31;;;16.67;100.00
65329;BME280;51941;52.210;5.158;2023-08-07T09:39:29;101583.28;;;16.73;100.00
65329;BME280;51941;52.210;5.158;2023-08-07T09:41:56;101589.88;;;16.65;100.00
65329;BME280;51941;52.210;5.158;2023-08-07T09:44:23;101593.47;;;16.54;100.00
65329;BME280;51941;52.210;5.158;2023-08-07T09:46:50;101609.59;;;16.38;100.00
65329;BME280;51941;52.210;5.158;2023-08-07T09:49:18;101608.72;;;16.10;100.00
65329;BME280;51941;52.210;5.158;2023-08-07T09:51:46;101609.47;;;15.84;100.00
65329;BME280;51941;52.210;5.158;2023-08-07T09:54:16;101608.13;;;16.03;100.00
65329;BME280;51941;52.210;5.158;2023-08-07T09:56:46;101609.66;;;15.99;100.00
65329;BME280;51941;52.210;5.158;2023-08-07T09:59:13;101602.72;;;16.20;100.00
65329;BME280;51941;52.210;5.158;2023-08-07T10:01:41;101612.72;;;16.29;100.00
65329;BME280;51941;52.210;5.158;2023-08-07T10:04:10;101619.34;;;16.49;100.00
65329;BME280;51941;52.210;5.158;2023-08-07T10:06:41;101617.72;;;16.70;100.00
65329;BME280;51941;52.210;5.158;2023-08-07T10:09:08;101588.13;;;16.76;100.00
65329;BME280;51941;52.210;5.158;2023-08-07T10:11:37;101615.59;;;16.98;100.00
65329;BME280;51941;52.210;5.158;2023-08-07T10:14:06;101598.00;;;17.08;100.00
65329;BME280;51941;52.210;5.158;2023-08-07T10:16:33;101606.47;;;17.26;100.00
65329;BME280;51941;52.210;5.158;2023-08-07T10:19:04;101612.69;;;17.37;100.00
65329;BME280;51941;52.210;5.158;2023-08-07T10:21:33;101608.41;;;17.36;100.00
65329;BME280;51941;52.210;5.158;2023-08-07T10:24:03;101608.97;;;17.38;100.00
65329;BME280;51941;52.210;5.158;2023-08-07T10:26:32;101601.38;;;17.25;100.00
65329;BME280;51941;52.210;5.158;2023-08-07T10:29:01;101610.44;;;17.24;100.00
65329;BME280;51941;52.210;5.158;2023-08-07T10:31:30;101613.19;;;17.34;100.00
65329;BME280;51941;52.210;5.158;2023-08-07T10:33:58;101612.53;;;17.54;100.00
65329;BME280;51941;52.210;5.158;2023-08-07T10:36:32;101617.13;;;17.58;100.00
65329;BME280;51941;52.210;5.158;2023-08-07T10:39:06;101619.06;;;17.63;100.00
65329;BME280;51941;52.210;5.158;2023-08-07T10:41:39;101623.56;;;17.57;100.00
65329;BME280;51941;52.210;5.158;2023-08-07T10:44:17;101630.78;;;17.57;100.00
65329;BME280;51941;52.210;5.158;2023-08-07T10:46:51;101632.28;;;17.42;100.00
65329;BME280;51941;52.210;5.158;2023-08-07T10:49:31;101641.53;;;17.30;100.00
65329;BME280;51941;52.210;5.158;2023-08-07T10:51:58;101639.25;;;17.43;100.00
65329;BME280;51941;52.210;5.158;2023-08-07T10:54:25;101650.66;;;17.34;100.00
65329;BME280;51941;52.210;5.158;2023-08-07T10:56:53;101650.56;;;17.19;100.00
65329;BME280;51941;52.210;5.158;2023-08-07T10:59:21;101647.00;;;17.13;100.00
65329;BME280;51941;52.210;5.158;2023-08-07T11:01:54;101647.63;;;17.20;100.00
65329;BME280;51941;52.210;5.158;2023-08-07T11:04:22;101653.25;;;17.24;100.00
65329;BME280;51941;52.210;5.158;2023-08-07T11:06:51;101660.56;;;17.33;100.00
65329;BME280;51941;52.210;5.158;2023-08-07T11:09:18;101652.03;;;17.36;100.00
65329;BME280;51941;52.210;5.158;2023-08-07T11:11:46;101654.81;;;17.52;100.00
65329;BME280;51941;52.210;5.158;2023-08-07T11:14:16;101661.16;;;17.72;100.00
65329;BME280;51941;52.210;5.158;2023-08-07T11:16:44;101649.09;;;17.70;100.00
65329;BME280;51941;52.210;5.158;2023-08-07T11:19:13;101645.03;;;17.67;100.00
65329;BME280;51941;52.210;5.158;2023-08-07T11:21:41;101656.19;;;17.54;100.00
65329;BME280;51941;52.210;5.158;2023-08-07T11:24:12;101651.84;;;17.48;100.00
65329;BME280;51941;52.210;5.158;2023-08-07T11:26:39;101650.06;;;17.59;100.00
65329;BME280;51941;52.210;5.158;2023-08-07T11:29:06;101649.09;;;17.75;100.00
65329;BME280;51941;52.210;5.158;2023-08-07T11:31:33;101651.84;;;17.80;100.00
65329;BME280;51941;52.210;5.158;2023-08-07T11:34:00;101645.72;;;17.90;100.00
65329;BME280;51941;52.210;5.158;2023-08-07T11:36:29;101644.38;;;17.87;100.00
65329;BME280;51941;52.210;5.158;2023-08-07T11:38:57;101628.34;;;17.97;100.00
65329;BME280;51941;52.210;5.158;2023-08-07T11:41:24;101640.19;;;18.06;100.00
65329;BME280;51941;52.210;5.158;2023-08-07T11:43:50;101639.44;;;18.26;100.00
65329;BME280;51941;52.210;5.158;2023-08-07T11:46:17;101647.63;;;18.51;100.00
65329;BME280;51941;52.210;5.158;2023-08-07T11:48:44;101636.41;;;18.65;95.66
65329;BME280;51941;52.210;5.158;2023-08-07T11:51:11;101637.75;;;18.72;92.27
65329;BME280;51941;52.210;5.158;2023-08-07T11:53:40;101646.34;;;18.69;92.09
65329;BME280;51941;52.210;5.158;2023-08-07T11:56:08;101651.31;;;18.45;86.82
65329;BME280;51941;52.210;5.158;2023-08-07T11:58:37;101648.06;;;18.33;86.64
65329;BME280;51941;52.210;5.158;2023-08-07T12:01:04;101646.44;;;18.27;85.49
65329;BME280;51941;52.210;5.158;2023-08-07T12:03:33;101650.75;;;18.33;87.55
65329;BME280;51941;52.210;5.158;2023-08-07T12:06:04;101652.13;;;18.41;86.98
65329;BME280;51941;52.210;5.158;2023-08-07T12:08:32;101656.41;;;18.42;86.80
65329;BME280;51941;52.210;5.158;2023-08-07T12:11:02;101648.59;;;18.25;86.21
65329;BME280;51941;52.210;5.158;2023-08-07T12:13:31;101649.91;;;18.28;87.30
65329;BME280;51941;52.210;5.158;2023-08-07T12:16:01;101646.44;;;18.27;84.44
65329;BME280;51941;52.210;5.158;2023-08-07T12:18:30;101645.38;;;18.28;82.39
65329;BME280;51941;52.210;5.158;2023-08-07T12:20:57;101640.59;;;18.45;82.63
65329;BME280;51941;52.210;5.158;2023-08-07T12:23:25;101645.22;;;18.50;77.23
65329;BME280;51941;52.210;5.158;2023-08-07T12:25:52;101632.06;;;18.53;74.66
65329;BME280;51941;52.210;5.158;2023-08-07T12:28:20;101638.53;;;18.52;75.32
65329;BME280;51941;52.210;5.158;2023-08-07T12:30:48;101645.53;;;18.69;79.78
65329;BME280;51941;52.210;5.158;2023-08-07T12:33:15;101644.50;;;18.85;81.96
65329;BME280;51941;52.210;5.158;2023-08-07T12:35:42;101643.41;;;18.91;79.50
65329;BME280;51941;52.210;5.158;2023-08-07T12:38:08;101652.28;;;18.91;78.31
65329;BME280;51941;52.210;5.158;2023-08-07T12:40:36;101642.09;;;19.04;80.34
65329;BME280;51941;52.210;5.158;2023-08-07T12:43:03;101649.34;;;19.23;76.84